createdAt,value
2023-08-28T00:01:05.811Z,10.11
2023-08-28T00:03:34.308Z,10.14
2023-08-28T00:06:02.958Z,10.17
2023-08-28T00:08:31.256Z,10.16
2023-08-28T00:10:59.617Z,10.20
2023-08-28T00:13:27.912Z,10.22
2023-08-28T00:15:57.810Z,10.22
2023-08-28T00:18:26.243Z,10.23
2023-08-28T00:20:54.766Z,10.22
2023-08-28T00:23:23.377Z,10.21
2023-08-28T00:25:51.665Z,10.21
2023-08-28T00:28:19.961Z,10.21
2023-08-28T00:30:48.725Z,10.24
2023-08-28T00:33:19.485Z,10.24
2023-08-28T00:35:47.980Z,10.25
2023-08-28T00:38:16.424Z,10.25
2023-08-28T00:40:45.516Z,10.26
2023-08-28T00:43:13.828Z,10.27
2023-08-28T00:45:45.343Z,10.27
2023-08-28T00:48:16.884Z,10.26
2023-08-28T00:50:47.273Z,10.24
2023-08-28T00:53:16.070Z,10.24
2023-08-28T00:55:46.397Z,10.26
2023-08-28T00:58:15.330Z,10.28
2023-08-28T01:00:43.861Z,10.31
2023-08-28T01:03:12.390Z,10.34
2023-08-28T01:05:49.075Z,10.35
2023-08-28T01:08:26.347Z,10.38
2023-08-28T01:10:59.917Z,10.39
2023-08-28T01:13:33.063Z,10.39
2023-08-28T01:16:01.731Z,10.40
2023-08-28T01:18:30.497Z,10.42
2023-08-28T01:21:00.445Z,10.44
2023-08-28T01:23:34.015Z,10.46
2023-08-28T01:26:03.816Z,10.47
2023-08-28T01:28:32.579Z,10.47
2023-08-28T01:31:01.045Z,10.47
2023-08-28T01:33:29.468Z,10.48
2023-08-28T01:36:08.047Z,10.44
2023-08-28T01:38:40.586Z,10.39
2023-08-28T01:41:12.578Z,10.34
2023-08-28T01:43:48.804Z,10.31
2023-08-28T01:46:18.391Z,10.29
2023-08-28T01:48:52.307Z,10.28
2023-08-28T01:51:21.076Z,10.27
2023-08-28T01:53:50.234Z,10.26
2023-08-28T01:56:22.339Z,10.27
2023-08-28T01:58:52.945Z,10.27
2023-08-28T02:01:22.080Z,10.26
2023-08-28T02:03:50.438Z,10.23
2023-08-28T02:06:19.102Z,10.21
2023-08-28T02:08:48.469Z,10.20
2023-08-28T02:11:17.064Z,10.23
2023-08-28T02:13:48.626Z,10.22
2023-08-28T02:16:18.402Z,10.24
2023-08-28T02:18:46.892Z,10.25
2023-08-28T02:21:15.255Z,10.25
2023-08-28T02:23:43.625Z,10.23
2023-08-28T02:26:11.914Z,10.21
2023-08-28T02:28:40.634Z,10.16
2023-08-28T02:31:10.452Z,10.12
2023-08-28T02:33:38.885Z,10.09
2023-08-28T02:36:07.404Z,10.08
2023-08-28T02:38:35.988Z,10.07
2023-08-28T02:41:06.213Z,10.07
2023-08-28T02:43:34.681Z,10.10
2023-08-28T02:46:04.042Z,10.14
2023-08-28T02:48:34.039Z,10.13
2023-08-28T02:51:02.576Z,10.12
2023-08-28T02:53:31.004Z,10.11
2023-08-28T02:56:23.725Z,10.12
2023-08-28T02:58:52.629Z,10.12
2023-08-28T03:01:21.513Z,10.14
2023-08-28T03:03:51.559Z,10.12
2023-08-28T03:06:20.233Z,10.14
2023-08-28T03:08:48.715Z,10.15
2023-08-28T03:11:18.003Z,10.16
2023-08-28T03:13:46.458Z,10.19
2023-08-28T03:16:14.993Z,10.21
2023-08-28T03:18:43.535Z,10.21
2023-08-28T03:21:13.488Z,10.25
2023-08-28T03:23:41.949Z,10.25
2023-08-28T03:26:10.541Z,10.26
2023-08-28T03:28:39.271Z,10.30
2023-08-28T03:31:07.636Z,10.30
2023-08-28T03:33:36.757Z,10.31
2023-08-28T03:36:05.848Z,10.34
2023-08-28T03:38:38.205Z,10.35
2023-08-28T03:41:09.910Z,10.36
2023-08-28T03:43:38.458Z,10.39
2023-08-28T03:46:06.996Z,10.39
2023-08-28T03:48:36.048Z,10.41
2023-08-28T03:51:04.441Z,10.42
2023-08-28T03:53:32.825Z,10.42
2023-08-28T03:56:02.675Z,10.43
2023-08-28T03:58:31.120Z,10.44
2023-08-28T04:00:59.466Z,10.42
2023-08-28T04:03:27.974Z,10.42
2023-08-28T04:05:56.352Z,10.41
2023-08-28T04:08:24.709Z,10.40
2023-08-28T04:10:53.716Z,10.38
2023-08-28T04:13:23.805Z,10.35
2023-08-28T04:15:52.378Z,10.29
2023-08-28T04:18:21.076Z,10.22
2023-08-28T04:20:50.353Z,10.13
2023-08-28T04:23:19.314Z,10.01
2023-08-28T04:25:47.735Z,9.92
2023-08-28T04:28:17.367Z,9.80
2023-08-28T04:30:47.782Z,9.70
2023-08-28T04:33:16.619Z,9.64
2023-08-28T04:35:44.949Z,9.57
2023-08-28T04:38:13.483Z,9.50
2023-08-28T04:40:43.979Z,9.45
2023-08-28T04:43:13.898Z,9.40
2023-08-28T04:45:42.357Z,9.34
2023-08-28T04:48:12.180Z,9.30
2023-08-28T04:50:40.658Z,9.21
2023-08-28T04:53:08.967Z,9.19
2023-08-28T04:55:40.712Z,9.15
2023-08-28T04:58:09.128Z,9.13
2023-08-28T05:00:37.489Z,9.10
2023-08-28T05:03:08.008Z,9.10
2023-08-28T05:05:38.267Z,9.11
2023-08-28T05:08:07.941Z,9.10
2023-08-28T05:10:36.391Z,9.05
2023-08-28T05:13:05.620Z,9.01
2023-08-28T05:15:36.440Z,8.98
2023-08-28T05:18:06.869Z,8.97
2023-08-28T05:20:35.289Z,8.92
2023-08-28T05:23:05.960Z,8.85
2023-08-28T05:25:34.955Z,8.80
2023-08-28T05:28:03.498Z,8.80
2023-08-28T05:30:32.013Z,8.82
2023-08-28T05:33:01.811Z,8.85
2023-08-28T05:35:30.880Z,8.85
2023-08-28T05:37:59.280Z,8.89
2023-08-28T05:40:29.967Z,8.98
2023-08-28T05:42:59.138Z,9.08
2023-08-28T05:45:28.473Z,9.17
2023-08-28T05:47:57.545Z,9.26
2023-08-28T05:50:26.069Z,9.37
2023-08-28T05:52:54.479Z,9.47
2023-08-28T05:55:22.933Z,9.58
2023-08-28T05:57:52.941Z,9.65
2023-08-28T06:00:21.538Z,9.70
2023-08-28T06:02:50.507Z,9.79
2023-08-28T06:05:20.041Z,9.84
2023-08-28T06:07:49.453Z,9.89
2023-08-28T06:10:20.978Z,9.93
2023-08-28T06:12:49.656Z,9.98
2023-08-28T06:15:20.066Z,10.02
2023-08-28T06:17:49.302Z,10.07
2023-08-28T06:20:17.873Z,10.09
2023-08-28T06:22:46.525Z,10.15
2023-08-28T06:25:15.292Z,10.18
2023-08-28T06:27:44.390Z,10.23
2023-08-28T06:30:13.882Z,10.24
2023-08-28T06:32:43.774Z,10.27
2023-08-28T06:35:12.331Z,10.28
2023-08-28T06:37:40.724Z,10.31
2023-08-28T06:40:10.813Z,10.34
2023-08-28T06:42:39.704Z,10.39
2023-08-28T06:45:11.078Z,10.38
2023-08-28T06:47:39.760Z,10.42
2023-08-28T06:50:10.465Z,10.46
2023-08-28T06:52:38.836Z,10.50
2023-08-28T06:55:07.888Z,10.53
2023-08-28T06:57:36.289Z,10.56
2023-08-28T07:00:07.099Z,10.60
2023-08-28T07:02:35.805Z,10.62
2023-08-28T07:05:04.308Z,10.68
2023-08-28T07:07:34.435Z,10.72
2023-08-28T07:10:02.970Z,10.77
2023-08-28T07:12:31.285Z,10.81
2023-08-28T07:15:23.496Z,10.87
2023-08-28T07:17:52.268Z,10.88
2023-08-28T07:20:21.708Z,10.91
2023-08-28T07:22:51.775Z,10.91
2023-08-28T07:25:23.795Z,10.91
2023-08-28T07:27:53.165Z,10.91
2023-08-28T07:30:21.928Z,10.95
2023-08-28T07:32:50.336Z,10.93
2023-08-28T07:35:19.028Z,10.88
2023-08-28T07:37:47.367Z,10.85
2023-08-28T07:40:17.492Z,10.85
2023-08-28T07:42:46.076Z,10.85
2023-08-28T07:45:14.425Z,10.86
2023-08-28T07:47:44.833Z,10.85
2023-08-28T07:50:14.286Z,10.85
2023-08-28T07:52:42.777Z,10.88
2023-08-28T07:55:11.680Z,10.93
2023-08-28T07:57:41.416Z,10.95
2023-08-28T08:00:11.623Z,10.97
2023-08-28T08:02:43.211Z,11.02
2023-08-28T08:05:12.905Z,11.03
2023-08-28T08:07:41.846Z,11.11
2023-08-28T08:10:11.226Z,11.15
2023-08-28T08:12:41.277Z,11.22
2023-08-28T08:15:10.981Z,11.30
2023-08-28T08:17:39.644Z,11.34
2023-08-28T08:20:11.925Z,11.38
2023-08-28T08:22:40.596Z,11.43
2023-08-28T08:25:10.580Z,11.52
2023-08-28T08:27:41.074Z,11.54
2023-08-28T08:30:10.811Z,11.58
2023-08-28T08:32:39.273Z,11.64
2023-08-28T08:35:08.438Z,11.65
2023-08-28T08:37:40.024Z,11.70
2023-08-28T08:40:17.900Z,11.77
2023-08-28T08:42:50.560Z,11.80
2023-08-28T08:45:20.870Z,11.90
2023-08-28T08:47:57.060Z,11.99
2023-08-28T08:50:28.492Z,12.10
2023-08-28T08:53:05.714Z,12.18
2023-08-28T08:55:42.334Z,12.24
2023-08-28T08:58:16.002Z,12.30
2023-08-28T09:00:45.274Z,12.39
2023-08-28T09:03:16.062Z,12.48
2023-08-28T09:05:46.292Z,12.58
2023-08-28T09:08:17.512Z,12.69
2023-08-28T09:10:47.399Z,12.71
2023-08-28T09:13:17.335Z,12.69
2023-08-28T09:15:45.833Z,12.72
2023-08-28T09:18:14.802Z,12.81
2023-08-28T09:20:43.275Z,12.94
2023-08-28T09:23:11.789Z,13.00
2023-08-28T09:25:41.408Z,13.01
2023-08-28T09:28:15.337Z,13.08
2023-08-28T09:30:46.655Z,13.19
2023-08-28T09:33:15.223Z,13.26
2023-08-28T09:35:44.944Z,13.38
2023-08-28T09:38:14.169Z,13.41
2023-08-28T09:40:43.669Z,13.29
2023-08-28T09:43:14.498Z,13.20
2023-08-28T09:45:44.188Z,13.10
2023-08-28T09:48:17.128Z,13.08
2023-08-28T09:50:47.017Z,13.10
2023-08-28T09:53:16.878Z,13.07
2023-08-28T09:55:49.338Z,13.00
2023-08-28T09:58:18.357Z,13.06
2023-08-28T10:00:47.774Z,13.17
2023-08-28T10:03:17.820Z,13.26
2023-08-28T10:05:47.890Z,13.40
2023-08-28T10:08:18.185Z,13.64
2023-08-28T10:10:49.144Z,13.83
2023-08-28T10:13:19.357Z,13.91
2023-08-28T10:15:56.115Z,13.91
2023-08-28T10:18:32.082Z,13.82
2023-08-28T10:21:02.503Z,13.78
2023-08-28T10:23:31.850Z,13.76
2023-08-28T10:26:01.608Z,13.72
2023-08-28T10:28:31.401Z,13.69
2023-08-28T10:31:01.103Z,13.66
2023-08-28T10:33:33.236Z,13.51
2023-08-28T10:36:04.306Z,13.43
2023-08-28T10:38:35.568Z,13.48
2023-08-28T10:41:09.338Z,13.43
2023-08-28T10:43:38.404Z,13.46
2023-08-28T10:46:07.390Z,13.42
2023-08-28T10:48:40.345Z,13.49
2023-08-28T10:51:13.496Z,13.65
2023-08-28T10:53:42.434Z,13.65
2023-08-28T10:56:13.671Z,13.62
2023-08-28T10:58:42.244Z,13.63
2023-08-28T11:01:16.580Z,13.93
2023-08-28T11:03:59.982Z,14.41
2023-08-28T11:06:44.193Z,14.53
2023-08-28T11:09:41.097Z,14.47
2023-08-28T11:12:28.429Z,14.64
2023-08-28T11:15:01.268Z,14.85
2023-08-28T11:17:33.705Z,15.07
2023-08-28T11:20:13.892Z,15.38
2023-08-28T11:22:44.284Z,15.37
2023-08-28T11:25:14.024Z,15.07
2023-08-28T11:27:48.043Z,14.68
2023-08-28T11:30:18.267Z,14.42
2023-08-28T11:32:48.049Z,14.41
2023-08-28T11:35:19.359Z,14.38
2023-08-28T11:37:50.820Z,14.42
2023-08-28T11:40:20.879Z,14.40
2023-08-28T11:42:50.387Z,14.46
2023-08-28T11:45:25.963Z,14.55
2023-08-28T11:47:55.386Z,14.43
2023-08-28T11:50:26.808Z,14.45
2023-08-28T11:52:55.797Z,14.63
2023-08-28T11:55:24.340Z,14.73
2023-08-28T11:57:53.143Z,14.78
2023-08-28T12:00:23.290Z,14.78
2023-08-28T12:02:51.790Z,14.88
2023-08-28T12:05:21.010Z,14.83
2023-08-28T12:07:51.799Z,14.64
2023-08-28T12:10:22.788Z,14.41
2023-08-28T12:12:56.243Z,14.22
2023-08-28T12:15:34.277Z,14.05
2023-08-28T12:18:04.734Z,14.05
2023-08-28T12:20:34.745Z,14.10
2023-08-28T12:23:05.247Z,14.20
2023-08-28T12:25:35.656Z,14.23
2023-08-28T12:28:09.269Z,14.15
2023-08-28T12:30:41.208Z,14.13
2023-08-28T12:33:10.463Z,14.15
2023-08-28T12:35:40.351Z,14.12
2023-08-28T12:38:10.210Z,14.10
2023-08-28T12:40:39.083Z,14.17
2023-08-28T12:43:11.126Z,14.13
2023-08-28T12:45:39.686Z,14.16
2023-08-28T12:48:09.022Z,14.15
2023-08-28T12:50:37.748Z,14.17
2023-08-28T12:53:07.128Z,14.17
2023-08-28T12:55:37.836Z,14.20
2023-08-28T12:58:06.420Z,14.25
2023-08-28T13:00:34.740Z,14.17
2023-08-28T13:03:05.052Z,14.03
2023-08-28T13:05:34.069Z,14.00
2023-08-28T13:08:02.915Z,13.95
2023-08-28T13:10:32.286Z,13.94
2023-08-28T13:13:03.480Z,14.01
2023-08-28T13:15:33.172Z,14.12
2023-08-28T13:18:03.721Z,14.29
2023-08-28T13:20:32.449Z,14.51
2023-08-28T13:23:00.891Z,14.64
2023-08-28T13:25:29.577Z,14.77
2023-08-28T13:27:58.109Z,14.89
2023-08-28T13:30:28.115Z,14.98
2023-08-28T13:32:57.952Z,15.09
2023-08-28T13:35:26.948Z,15.16
2023-08-28T13:37:56.302Z,15.24
2023-08-28T13:40:25.165Z,15.18
2023-08-28T13:42:53.766Z,15.21
2023-08-28T13:45:22.355Z,15.28
2023-08-28T13:47:52.567Z,15.36
2023-08-28T13:50:20.979Z,15.34
2023-08-28T13:52:49.642Z,15.25
2023-08-28T13:55:18.194Z,15.22
2023-08-28T13:57:47.038Z,15.42
2023-08-28T14:00:15.922Z,15.73
2023-08-28T14:02:45.128Z,15.83
2023-08-28T14:05:15.011Z,15.70
2023-08-28T14:07:44.316Z,15.49
2023-08-28T14:10:13.075Z,15.33
2023-08-28T14:12:41.484Z,15.06
2023-08-28T14:15:10.235Z,14.75
2023-08-28T14:17:38.764Z,14.56
2023-08-28T14:20:10.321Z,14.48
2023-08-28T14:22:41.225Z,14.42
2023-08-28T14:25:11.360Z,14.33
2023-08-28T14:27:53.292Z,14.20
2023-08-28T14:30:25.493Z,14.06
2023-08-28T14:32:53.927Z,14.01
2023-08-28T14:35:22.509Z,13.98
2023-08-28T14:37:52.326Z,13.99
2023-08-28T14:40:32.518Z,14.05
2023-08-28T14:43:09.447Z,14.11
2023-08-28T14:45:38.859Z,14.14
2023-08-28T14:48:08.551Z,14.16
2023-08-28T14:50:37.539Z,14.18
2023-08-28T14:53:07.865Z,14.21
2023-08-28T14:55:36.699Z,14.17
2023-08-28T14:58:06.141Z,14.12
2023-08-28T15:00:35.869Z,14.05
2023-08-28T15:03:05.450Z,13.96
2023-08-28T15:05:35.216Z,13.95
2023-08-28T15:08:15.849Z,13.90
2023-08-28T15:10:48.060Z,13.95
2023-08-28T15:13:17.673Z,14.00
2023-08-28T15:15:50.118Z,14.07
2023-08-28T15:18:19.489Z,14.09
2023-08-28T15:20:48.536Z,14.11
2023-08-28T15:23:17.769Z,14.14
2023-08-28T15:25:47.634Z,14.18
2023-08-28T15:28:16.482Z,14.24
2023-08-28T15:30:45.054Z,14.32
2023-08-28T15:33:14.383Z,14.40
2023-08-28T15:35:42.923Z,14.46
2023-08-28T15:38:11.594Z,14.44
2023-08-28T15:40:40.138Z,14.45
2023-08-28T15:43:10.216Z,14.45
2023-08-28T15:45:38.936Z,14.44
2023-08-28T15:48:08.297Z,14.48
2023-08-28T15:50:36.805Z,14.45
2023-08-28T15:53:05.828Z,14.38
2023-08-28T15:55:34.493Z,14.34
2023-08-28T15:58:03.006Z,14.31
2023-08-28T16:00:32.997Z,14.25
2023-08-28T16:03:01.706Z,14.18
2023-08-28T16:05:30.598Z,14.08
2023-08-28T16:07:59.088Z,14.03
2023-08-28T16:10:27.864Z,14.00
2023-08-28T16:12:56.314Z,14.04
2023-08-28T16:15:25.034Z,14.05
2023-08-28T16:17:55.219Z,14.08
2023-08-28T16:20:27.565Z,14.14
2023-08-28T16:22:56.399Z,14.18
2023-08-28T16:25:25.235Z,14.13
2023-08-28T16:27:53.766Z,14.03
2023-08-28T16:30:22.499Z,13.99
2023-08-28T16:32:51.649Z,13.94
2023-08-28T16:35:21.747Z,13.89
2023-08-28T16:37:50.164Z,13.83
2023-08-28T16:40:18.562Z,13.77
2023-08-28T16:42:46.897Z,13.75
2023-08-28T16:45:15.229Z,13.72
2023-08-28T16:47:43.625Z,13.68
2023-08-28T16:50:12.605Z,13.66
2023-08-28T16:52:42.508Z,13.65
2023-08-28T16:55:11.667Z,13.66
2023-08-28T16:57:40.103Z,13.62
2023-08-28T17:00:11.780Z,13.61
2023-08-28T17:02:41.673Z,13.58
2023-08-28T17:05:10.278Z,13.57
2023-08-28T17:07:38.659Z,13.56
2023-08-28T17:10:09.705Z,13.56
2023-08-28T17:12:38.277Z,13.59
2023-08-28T17:15:07.831Z,13.59
2023-08-28T17:17:36.778Z,13.60
2023-08-28T17:20:06.405Z,13.58
2023-08-28T17:22:34.760Z,13.61
2023-08-28T17:25:03.153Z,13.58
2023-08-28T17:27:32.823Z,13.55
2023-08-28T17:30:01.512Z,13.51
2023-08-28T17:32:30.063Z,13.46
2023-08-28T17:34:58.435Z,13.41
2023-08-28T17:37:26.878Z,13.37
2023-08-28T17:39:55.285Z,13.35
2023-08-28T17:42:24.810Z,13.31
2023-08-28T17:44:54.674Z,13.26
2023-08-28T17:47:23.055Z,13.23
2023-08-28T17:49:57.106Z,13.18
2023-08-28T17:52:26.782Z,13.13
2023-08-28T17:54:56.855Z,13.08
2023-08-28T17:57:25.938Z,13.02
2023-08-28T17:59:55.885Z,12.99
2023-08-28T18:02:24.365Z,12.96
2023-08-28T18:04:52.816Z,12.93
2023-08-28T18:07:24.627Z,12.88
2023-08-28T18:09:53.025Z,12.85
2023-08-28T18:12:21.694Z,12.80
2023-08-28T18:14:50.236Z,12.75
2023-08-28T18:17:20.235Z,12.72
2023-08-28T18:19:48.824Z,12.69
2023-08-28T18:22:17.081Z,12.63
2023-08-28T18:24:45.518Z,12.55
2023-08-28T18:27:13.827Z,12.50
2023-08-28T18:29:42.319Z,12.44
2023-08-28T18:32:10.779Z,12.38
2023-08-28T18:34:40.618Z,12.35
2023-08-28T18:37:09.045Z,12.32
2023-08-28T18:39:37.428Z,12.27
2023-08-28T18:42:09.336Z,12.26
2023-08-28T18:44:38.566Z,12.24
2023-08-28T18:47:07.190Z,12.19
2023-08-28T18:49:35.873Z,12.15
2023-08-28T18:52:06.487Z,12.11
2023-08-28T18:54:35.172Z,12.07
2023-08-28T18:57:05.031Z,12.05
2023-08-28T18:59:34.264Z,12.02
2023-08-28T19:02:02.560Z,12.00
2023-08-28T19:04:31.541Z,11.98
2023-08-28T19:06:59.949Z,11.96
2023-08-28T19:09:30.406Z,11.93
2023-08-28T19:11:58.934Z,11.92
2023-08-28T19:14:27.354Z,11.90
2023-08-28T19:16:55.836Z,11.87
2023-08-28T19:19:24.155Z,11.83
2023-08-28T19:21:52.540Z,11.81
2023-08-28T19:24:20.846Z,11.83
2023-08-28T19:26:50.794Z,11.85
2023-08-28T19:29:19.186Z,11.92
2023-08-28T19:31:47.843Z,11.95
2023-08-28T19:34:16.825Z,12.01
2023-08-28T19:36:45.247Z,12.03
2023-08-28T19:39:14.954Z,12.06
2023-08-28T19:41:43.337Z,12.11
2023-08-28T19:44:13.062Z,12.16
2023-08-28T19:46:43.640Z,12.18
2023-08-28T19:49:12.946Z,12.21
2023-08-28T19:51:41.612Z,12.25
2023-08-28T19:54:12.156Z,12.28
2023-08-28T19:56:40.738Z,12.28
2023-08-28T19:59:09.124Z,12.29
2023-08-28T20:01:39.111Z,12.31
2023-08-28T20:04:07.954Z,12.31
2023-08-28T20:06:36.539Z,12.30
2023-08-28T20:09:07.348Z,12.30
2023-08-28T20:11:35.945Z,12.29
2023-08-28T20:14:04.280Z,12.27
2023-08-28T20:16:32.992Z,12.26
2023-08-28T20:19:02.733Z,12.25
2023-08-28T20:21:31.182Z,12.25
2023-08-28T20:23:59.521Z,12.25
2023-08-28T20:26:27.931Z,12.25
2023-08-28T20:28:56.443Z,12.26
2023-08-28T20:31:25.177Z,12.27
2023-08-28T20:33:53.672Z,12.26
2023-08-28T20:36:23.411Z,12.27
2023-08-28T20:38:51.841Z,12.25
2023-08-28T20:41:20.181Z,12.25
2023-08-28T20:43:48.564Z,12.25
2023-08-28T20:46:17.000Z,12.24
2023-08-28T20:48:46.472Z,12.24
2023-08-28T20:51:14.886Z,12.24
2023-08-28T20:53:45.040Z,12.21
2023-08-28T20:56:13.630Z,12.18
2023-08-28T20:58:42.160Z,12.16
2023-08-28T21:01:10.667Z,12.14
2023-08-28T21:03:39.030Z,12.14
2023-08-28T21:06:07.483Z,12.15
2023-08-28T21:08:35.788Z,12.15
2023-08-28T21:11:05.796Z,12.15
2023-08-28T21:13:34.154Z,12.14
2023-08-28T21:16:02.889Z,12.13
2023-08-28T21:18:31.391Z,12.12
2023-08-28T21:21:02.750Z,12.11
2023-08-28T21:23:31.204Z,12.10
2023-08-28T21:26:00.664Z,12.08
2023-08-28T21:28:31.873Z,12.06
2023-08-28T21:31:01.990Z,12.04
2023-08-28T21:33:31.445Z,12.02
2023-08-28T21:36:00.718Z,12.02
2023-08-28T21:38:29.064Z,12.01
2023-08-28T21:40:59.262Z,11.99
2023-08-28T21:43:28.716Z,11.98
2023-08-28T21:46:01.105Z,11.98
2023-08-28T21:48:32.235Z,11.97
2023-08-28T21:51:19.295Z,11.96
2023-08-28T21:54:06.697Z,11.93
2023-08-28T21:56:53.475Z,11.93
2023-08-28T21:59:40.333Z,11.91
2023-08-28T22:02:29.711Z,11.92
2023-08-28T22:05:16.906Z,11.92
2023-08-28T22:07:45.404Z,11.92
2023-08-28T22:10:34.098Z,11.92
2023-08-28T22:13:31.995Z,11.92
2023-08-28T22:16:00.563Z,11.90
2023-08-28T22:18:30.607Z,11.90
2023-08-28T22:20:59.420Z,11.88
2023-08-28T22:23:28.153Z,11.90
2023-08-28T22:25:57.143Z,11.89
2023-08-28T22:28:25.637Z,11.89
2023-08-28T22:30:54.804Z,11.86
2023-08-28T22:33:23.175Z,11.85
2023-08-28T22:35:53.097Z,11.85
2023-08-28T22:38:21.586Z,11.84
2023-08-28T22:40:49.997Z,11.82
2023-08-28T22:43:18.522Z,11.81
2023-08-28T22:45:46.955Z,11.81
2023-08-28T22:48:15.334Z,11.79
2023-08-28T22:50:43.895Z,11.78
2023-08-28T22:53:13.608Z,11.77
2023-08-28T22:55:42.015Z,11.76
2023-08-28T22:58:10.314Z,11.75
2023-08-28T23:00:38.836Z,11.72
2023-08-28T23:03:07.517Z,11.71
2023-08-28T23:05:36.853Z,11.71
2023-08-28T23:08:05.985Z,11.70
2023-08-28T23:10:36.468Z,11.69
2023-08-28T23:13:05.092Z,11.68
2023-08-28T23:15:35.810Z,11.67
2023-08-28T23:18:04.719Z,11.67
2023-08-28T23:20:35.361Z,11.67
2023-08-28T23:23:03.775Z,11.64
2023-08-28T23:25:32.275Z,11.64
2023-08-28T23:28:06.941Z,11.64
2023-08-28T23:30:35.599Z,11.64
2023-08-28T23:33:05.211Z,11.64
2023-08-28T23:35:33.796Z,11.60
2023-08-28T23:38:02.267Z,11.59
2023-08-28T23:40:32.102Z,11.58
2023-08-28T23:43:01.841Z,11.57
2023-08-28T23:45:30.311Z,11.56
2023-08-28T23:47:58.786Z,11.57
2023-08-28T23:50:27.553Z,11.54
2023-08-28T23:52:55.883Z,11.55
2023-08-28T23:55:24.275Z,11.54
2023-08-28T23:57:53.592Z,11.52
